Weather at Miami International Airport

Public forecast

Using degrees Fahrenheit for public forecast. Weather courtesy of forecast.io.

Current aviation weather report (METAR) for Miami International Airport

2023/02/02 17:53 (retrieved 16 minutes ago)

KMIA 021753Z 14007G14KT 10SM BKN030 28/19 A3016 RMK AO2 SLP211 T02830194 10289 20217 58018

Aviation forecast (TAF) for Miami International Airport

2023/02/02 18:22 (retrieved 0 seconds ago)

TAF KMIA 021720Z 0218/0324 15011KT P6SM SCT025 BKN040 FM030100 VRB05KT P6SM FEW030 FM031200 20006KT P6SM SCT250 FM031500 21009KT P6SM BKN250